createdAt,value
2018-04-25T00:02:09.150Z,7.03
2018-04-25T00:04:36.611Z,6.87
2018-04-25T00:07:04.085Z,7.57
2018-04-25T00:09:31.600Z,7.10
2018-04-25T00:11:59.317Z,6.20
2018-04-25T00:14:26.797Z,6.30
2018-04-25T00:16:54.251Z,7.50
2018-04-25T00:19:21.728Z,7.13
2018-04-25T00:21:49.259Z,7.33
2018-04-25T00:24:16.781Z,7.77
2018-04-25T00:26:44.189Z,7.87
2018-04-25T00:29:11.653Z,7.60
2018-04-25T00:31:39.122Z,7.53
2018-04-25T00:34:06.617Z,7.80
2018-04-25T00:36:34.071Z,7.70
2018-04-25T00:39:01.523Z,7.10
2018-04-25T00:41:29.006Z,7.33
2018-04-25T00:43:56.468Z,7.90
2018-04-25T00:46:23.977Z,6.93
2018-04-25T00:48:51.433Z,7.47
2018-04-25T00:51:18.873Z,8.70
2018-04-25T00:53:46.364Z,7.90
2018-04-25T00:56:13.865Z,7.80
2018-04-25T00:58:41.363Z,8.40
2018-04-25T01:01:08.821Z,8.30
2018-04-25T01:03:36.290Z,7.30
2018-04-25T01:06:03.777Z,8.17
2018-04-25T01:08:31.315Z,6.90
2018-04-25T01:10:58.786Z,6.63
2018-04-25T01:13:26.260Z,6.93
2018-04-25T01:15:53.733Z,8.30
2018-04-25T01:18:21.223Z,7.90
2018-04-25T01:20:48.728Z,8.37
2018-04-25T01:23:22.057Z,8.40
2018-04-25T01:25:49.552Z,9.20
2018-04-25T01:28:22.843Z,8.80
2018-04-25T01:31:06.158Z,10.50
2018-04-25T01:33:35.452Z,10.20
2018-04-25T01:36:06.562Z,10.93
2018-04-25T01:38:34.101Z,11.57
2018-04-25T01:41:15.557Z,10.93
2018-04-25T01:43:45.811Z,10.70
2018-04-25T01:46:16.873Z,11.23
2018-04-25T01:49:02.801Z,11.57
2018-04-25T01:51:41.965Z,10.50
2018-04-25T01:54:21.255Z,8.33
2018-04-25T01:57:00.597Z,7.70
2018-04-25T01:59:39.896Z,7.60
2018-04-25T02:02:06.825Z,7.43
2018-04-25T02:04:35.650Z,6.87
2018-04-25T02:07:03.153Z,6.70
2018-04-25T02:09:30.652Z,7.30
2018-04-25T02:11:58.114Z,7.20
2018-04-25T02:14:25.596Z,8.23
2018-04-25T02:16:53.098Z,7.40
2018-04-25T02:19:20.565Z,7.03
2018-04-25T02:21:48.041Z,6.93
2018-04-25T02:24:15.502Z,7.20
2018-04-25T02:26:43.031Z,6.80
2018-04-25T02:29:10.505Z,7.77
2018-04-25T02:31:37.963Z,7.43
2018-04-25T02:34:05.499Z,7.50
2018-04-25T02:36:32.997Z,6.93
2018-04-25T02:39:00.476Z,8.10
2018-04-25T02:41:27.957Z,7.13
2018-04-25T02:43:55.466Z,7.20
2018-04-25T02:46:22.915Z,7.27
2018-04-25T02:48:50.388Z,7.63
2018-04-25T02:51:17.864Z,7.63
2018-04-25T02:53:45.329Z,8.37
2018-04-25T02:56:12.811Z,8.13
2018-04-25T02:58:40.314Z,7.57
2018-04-25T03:01:08.227Z,7.60
2018-04-25T03:03:36.089Z,7.60
2018-04-25T03:06:04.803Z,8.80
2018-04-25T03:08:32.278Z,7.77
2018-04-25T03:10:59.861Z,8.03
2018-04-25T03:13:27.771Z,7.70
2018-04-25T03:15:55.235Z,7.00
2018-04-25T03:18:22.681Z,7.10
2018-04-25T03:20:50.150Z,7.90
2018-04-25T03:23:17.687Z,6.70
2018-04-25T03:25:45.222Z,7.80
2018-04-25T03:28:12.639Z,6.73
2018-04-25T03:30:40.083Z,7.33
2018-04-25T03:33:07.562Z,7.10
2018-04-25T03:35:35.052Z,7.63
2018-04-25T03:38:02.542Z,7.00
2018-04-25T03:40:30.042Z,7.60
2018-04-25T03:42:57.503Z,7.60
2018-04-25T03:45:25.077Z,8.50
2018-04-25T03:47:52.541Z,8.90
2018-04-25T03:50:20.006Z,10.03
2018-04-25T03:52:47.516Z,9.83
2018-04-25T03:55:14.985Z,10.60
2018-04-25T03:57:42.446Z,10.03
2018-04-25T04:00:09.902Z,9.40
2018-04-25T04:02:37.407Z,9.70
2018-04-25T04:05:05.498Z,9.63
2018-04-25T04:07:32.988Z,10.90
2018-04-25T04:10:00.471Z,10.17
2018-04-25T04:12:27.934Z,9.87
2018-04-25T04:14:55.403Z,9.30
2018-04-25T04:17:22.935Z,9.43
2018-04-25T04:19:50.497Z,10.30
2018-04-25T04:22:18.025Z,10.13
2018-04-25T04:24:45.517Z,8.67
2018-04-25T04:27:12.978Z,9.67
2018-04-25T04:29:40.446Z,8.90
2018-04-25T04:32:08.822Z,8.57
2018-04-25T04:34:36.331Z,9.20
2018-04-25T04:37:04.119Z,8.57
2018-04-25T04:39:31.576Z,8.73
2018-04-25T04:41:59.062Z,10.00
2018-04-25T04:44:26.523Z,10.00
2018-04-25T04:46:53.978Z,10.60
2018-04-25T04:49:21.518Z,10.07
2018-04-25T04:51:49.195Z,10.63
2018-04-25T04:54:16.675Z,12.63
2018-04-25T04:56:44.189Z,11.40
2018-04-25T04:59:11.667Z,10.50
2018-04-25T05:01:39.143Z,10.70
2018-04-25T05:04:06.619Z,10.23
2018-04-25T05:06:34.082Z,10.67
2018-04-25T05:09:01.557Z,10.43
2018-04-25T05:11:29.043Z,11.00
2018-04-25T05:13:56.510Z,11.00
2018-04-25T05:16:23.984Z,10.53
2018-04-25T05:18:51.481Z,11.93
2018-04-25T05:21:18.931Z,12.10
2018-04-25T05:23:46.430Z,11.90
2018-04-25T05:26:13.930Z,12.20
2018-04-25T05:28:41.379Z,10.13
2018-04-25T05:31:08.859Z,11.13
2018-04-25T05:33:36.323Z,11.53
2018-04-25T05:36:03.816Z,11.00
2018-04-25T05:38:31.360Z,11.40
2018-04-25T05:40:58.823Z,11.63
2018-04-25T05:43:26.285Z,12.03
2018-04-25T05:45:53.763Z,13.40
2018-04-25T05:48:21.254Z,11.53
2018-04-25T05:50:48.713Z,12.60
2018-04-25T05:53:16.202Z,12.43
2018-04-25T05:55:44.572Z,13.07
2018-04-25T05:58:12.048Z,12.73
2018-04-25T06:00:39.530Z,13.57
2018-04-25T06:03:07.002Z,12.23
2018-04-25T06:05:34.541Z,13.60
2018-04-25T06:08:02.023Z,13.00
2018-04-25T06:10:29.511Z,12.70
2018-04-25T06:12:57.000Z,13.20
2018-04-25T06:15:24.468Z,12.47
2018-04-25T06:17:51.937Z,13.13
2018-04-25T06:20:19.463Z,12.73
2018-04-25T06:22:46.878Z,12.03
2018-04-25T06:25:14.343Z,12.87
2018-04-25T06:27:41.801Z,11.80
2018-04-25T06:30:09.283Z,11.70
2018-04-25T06:32:36.767Z,12.77
2018-04-25T06:35:04.245Z,13.40
2018-04-25T06:37:31.736Z,13.40
2018-04-25T06:39:59.202Z,12.93
2018-04-25T06:42:26.664Z,13.90
2018-04-25T06:44:54.174Z,13.10
2018-04-25T06:47:21.648Z,13.23
2018-04-25T06:49:49.134Z,14.57
2018-04-25T06:52:16.607Z,13.50
2018-04-25T06:54:44.132Z,12.50
2018-04-25T06:57:11.598Z,12.70
2018-04-25T06:59:39.089Z,13.27
2018-04-25T07:02:06.586Z,13.60
2018-04-25T07:04:34.063Z,12.27
2018-04-25T07:07:01.530Z,10.87
2018-04-25T07:09:29.022Z,12.10
2018-04-25T07:11:56.507Z,13.07
2018-04-25T07:14:23.982Z,11.67
2018-04-25T07:16:51.457Z,11.90
2018-04-25T07:19:18.938Z,11.10
2018-04-25T07:21:46.402Z,10.07
2018-04-25T07:24:13.879Z,10.87
2018-04-25T07:26:41.378Z,10.70
2018-04-25T07:29:08.862Z,11.27
2018-04-25T07:31:36.362Z,10.20
2018-04-25T07:34:03.889Z,10.50
2018-04-25T07:36:31.361Z,11.27
2018-04-25T07:38:58.836Z,11.50
2018-04-25T07:41:26.317Z,12.17
2018-04-25T07:43:53.815Z,11.80
2018-04-25T07:46:21.285Z,11.87
2018-04-25T07:48:48.762Z,13.00
2018-04-25T07:51:16.214Z,13.67
2018-04-25T07:53:43.732Z,13.20
2018-04-25T07:56:11.276Z,13.03
2018-04-25T07:58:38.740Z,12.50
2018-04-25T08:01:06.251Z,13.70
2018-04-25T08:03:33.826Z,14.60
2018-04-25T08:06:01.340Z,15.60
2018-04-25T08:08:28.822Z,14.87
2018-04-25T08:10:56.338Z,15.23
2018-04-25T08:13:35.568Z,14.30
2018-04-25T08:16:14.719Z,13.93
2018-04-25T08:18:53.887Z,13.10
2018-04-25T08:21:40.956Z,12.77
2018-04-25T08:24:08.446Z,13.27
2018-04-25T08:26:35.952Z,11.70
2018-04-25T08:29:03.433Z,9.77
2018-04-25T08:31:31.080Z,10.20
2018-04-25T08:33:58.551Z,8.03
2018-04-25T08:36:26.010Z,8.20
2018-04-25T08:38:53.474Z,7.47
2018-04-25T08:41:21.008Z,6.97
2018-04-25T08:43:48.398Z,6.67
2018-04-25T08:46:15.862Z,8.73
2018-04-25T08:48:43.325Z,6.67
2018-04-25T08:51:10.783Z,7.13
2018-04-25T08:53:38.250Z,6.53
2018-04-25T08:56:05.922Z,6.40
2018-04-25T08:58:33.415Z,5.13
2018-04-25T09:01:00.992Z,5.40
2018-04-25T09:03:28.451Z,5.53
2018-04-25T09:05:55.913Z,5.37
2018-04-25T09:08:23.373Z,4.87
2018-04-25T09:10:50.834Z,4.20
2018-04-25T09:13:18.377Z,4.60
2018-04-25T09:15:45.820Z,3.90
2018-04-25T09:18:13.891Z,4.10
2018-04-25T09:20:41.390Z,4.00
2018-04-25T09:23:08.878Z,4.03
2018-04-25T09:25:36.340Z,5.00
2018-04-25T09:28:03.906Z,3.63
2018-04-25T09:30:31.399Z,3.63
2018-04-25T09:32:58.856Z,3.10
2018-04-25T09:35:26.338Z,3.57
2018-04-25T09:37:53.871Z,4.30
2018-04-25T09:40:21.338Z,3.63
2018-04-25T09:42:48.799Z,3.07
2018-04-25T09:45:16.266Z,3.20
2018-04-25T09:47:43.811Z,3.63
2018-04-25T09:50:11.284Z,3.00
2018-04-25T09:52:39.244Z,4.27
2018-04-25T09:55:06.709Z,3.83
2018-04-25T09:57:34.189Z,3.77
2018-04-25T10:00:01.684Z,3.70
2018-04-25T10:02:34.067Z,3.90
2018-04-25T10:05:01.546Z,3.90
2018-04-25T10:07:29.026Z,3.90
2018-04-25T10:09:56.494Z,3.80
2018-04-25T10:12:23.989Z,3.10
2018-04-25T10:14:51.476Z,2.87
2018-04-25T10:17:19.000Z,3.23
2018-04-25T10:19:46.440Z,3.43
2018-04-25T10:22:13.877Z,2.93
2018-04-25T10:24:41.324Z,3.20
2018-04-25T10:27:08.785Z,3.67
2018-04-25T10:29:36.246Z,2.70
2018-04-25T10:32:03.790Z,3.57
2018-04-25T10:34:31.211Z,3.13
2018-04-25T10:36:58.654Z,4.10
2018-04-25T10:39:26.111Z,3.87
2018-04-25T10:41:53.634Z,3.50
2018-04-25T10:44:21.094Z,3.53
2018-04-25T10:46:48.556Z,3.97
2018-04-25T10:49:16.026Z,2.90
2018-04-25T10:51:43.477Z,4.03
2018-04-25T10:54:10.930Z,3.20
2018-04-25T10:56:39.415Z,3.40
2018-04-25T10:59:06.891Z,3.40
2018-04-25T11:01:34.501Z,3.40
2018-04-25T11:04:02.006Z,2.70
2018-04-25T11:06:29.498Z,2.93
2018-04-25T11:08:56.997Z,3.90
2018-04-25T11:11:24.473Z,3.47
2018-04-25T11:13:52.075Z,3.27
2018-04-25T11:16:19.532Z,3.80
2018-04-25T11:18:46.990Z,3.73
2018-04-25T11:21:14.446Z,4.67
2018-04-25T11:23:41.930Z,3.53
2018-04-25T11:26:09.446Z,3.37
2018-04-25T11:28:36.923Z,3.60
2018-04-25T11:31:05.265Z,3.50
2018-04-25T11:33:32.731Z,3.70
2018-04-25T11:36:00.197Z,3.80
2018-04-25T11:38:27.731Z,4.10
2018-04-25T11:40:55.214Z,3.70
2018-04-25T11:43:22.701Z,3.57
2018-04-25T11:45:50.183Z,2.97
2018-04-25T11:48:17.645Z,3.70
2018-04-25T11:50:45.119Z,4.13
2018-04-25T11:53:12.579Z,4.07
2018-04-25T11:55:40.037Z,3.70
2018-04-25T11:58:07.506Z,4.07
2018-04-25T12:00:34.974Z,4.67
2018-04-25T12:03:02.462Z,4.00
2018-04-25T12:05:30.955Z,3.57
2018-04-25T12:07:58.406Z,3.73
2018-04-25T12:10:25.905Z,3.70
2018-04-25T12:12:53.517Z,4.77
2018-04-25T12:15:21.074Z,3.40
2018-04-25T12:17:48.544Z,3.63
2018-04-25T12:20:15.986Z,4.17
2018-04-25T12:22:43.500Z,4.40
2018-04-25T12:25:10.994Z,4.50
2018-04-25T12:27:38.444Z,3.87
2018-04-25T12:30:06.556Z,4.30
2018-04-25T12:32:34.047Z,4.37
2018-04-25T12:35:01.527Z,4.27
2018-04-25T12:37:29.002Z,4.30
2018-04-25T12:39:56.527Z,5.30
2018-04-25T12:42:24.013Z,4.23
2018-04-25T12:44:51.482Z,4.40
2018-04-25T12:47:19.020Z,4.10
2018-04-25T12:49:46.532Z,4.10
2018-04-25T12:52:14.020Z,4.40
2018-04-25T12:54:41.496Z,4.30
2018-04-25T12:57:08.968Z,5.10
2018-04-25T12:59:36.422Z,4.40
2018-04-25T13:02:03.924Z,4.63
2018-04-25T13:04:31.364Z,4.23
2018-04-25T13:06:59.727Z,4.40
2018-04-25T13:09:27.198Z,4.43
2018-04-25T13:11:54.672Z,4.30
2018-04-25T13:14:22.109Z,4.67
2018-04-25T13:16:49.572Z,4.50
2018-04-25T13:19:17.046Z,4.10
2018-04-25T13:21:44.515Z,4.50
2018-04-25T13:24:12.060Z,3.80
2018-04-25T13:26:39.586Z,3.97
2018-04-25T13:29:07.060Z,3.80
2018-04-25T13:31:34.541Z,5.00
2018-04-25T13:34:02.004Z,4.50
2018-04-25T13:36:29.552Z,4.33
2018-04-25T13:38:57.056Z,3.40
2018-04-25T13:41:24.509Z,3.80
2018-04-25T13:43:52.016Z,3.67
2018-04-25T13:46:19.571Z,4.80
2018-04-25T13:48:47.026Z,4.67
2018-04-25T13:51:14.509Z,4.27
2018-04-25T13:53:41.997Z,3.67
2018-04-25T13:56:09.466Z,3.93
2018-04-25T13:58:36.927Z,4.30
2018-04-25T14:01:05.700Z,4.03
2018-04-25T14:03:33.158Z,4.10
2018-04-25T14:06:00.752Z,4.17
2018-04-25T14:08:28.217Z,3.70
2018-04-25T14:10:55.684Z,3.63
2018-04-25T14:13:23.175Z,3.80
2018-04-25T14:15:50.618Z,4.70
2018-04-25T14:18:18.194Z,6.00
2018-04-25T14:20:45.743Z,3.70
2018-04-25T14:23:13.221Z,4.40
2018-04-25T14:25:40.706Z,5.00
2018-04-25T14:28:08.174Z,4.50
2018-04-25T14:30:35.626Z,4.50
2018-04-25T14:33:03.087Z,4.50
2018-04-25T14:35:30.577Z,4.00
2018-04-25T14:37:58.046Z,3.67
2018-04-25T14:40:25.503Z,3.70
2018-04-25T14:42:52.959Z,4.43
2018-04-25T14:45:20.423Z,3.87
2018-04-25T14:47:47.873Z,4.17
2018-04-25T14:50:15.349Z,4.17
2018-04-25T14:52:42.983Z,3.80
2018-04-25T14:55:10.452Z,4.43
2018-04-25T14:57:37.911Z,4.40
2018-04-25T15:00:05.734Z,3.23
2018-04-25T15:02:33.207Z,4.33
2018-04-25T15:05:00.697Z,4.00
2018-04-25T15:07:28.212Z,3.80
2018-04-25T15:09:55.665Z,3.97
2018-04-25T15:12:23.151Z,3.93
2018-04-25T15:14:50.629Z,3.80
2018-04-25T15:17:18.141Z,3.50
2018-04-25T15:19:45.718Z,3.33
2018-04-25T15:22:13.183Z,3.40
2018-04-25T15:24:40.643Z,3.57
2018-04-25T15:27:08.546Z,3.67
2018-04-25T15:29:36.077Z,3.77
2018-04-25T15:32:03.984Z,3.40
2018-04-25T15:34:31.475Z,3.37
2018-04-25T15:36:59.138Z,3.50
2018-04-25T15:39:26.653Z,3.23
2018-04-25T15:41:54.412Z,3.70
2018-04-25T15:44:21.866Z,3.87
2018-04-25T15:46:49.339Z,2.93
2018-04-25T15:49:16.807Z,3.40
2018-04-25T15:51:44.335Z,3.27
2018-04-25T15:54:11.818Z,3.47
2018-04-25T15:56:39.338Z,3.60
2018-04-25T15:59:06.804Z,3.50
2018-04-25T16:01:34.256Z,3.67
2018-04-25T16:04:01.729Z,3.37
2018-04-25T16:06:29.192Z,4.50
2018-04-25T16:08:56.659Z,3.70
2018-04-25T16:11:24.169Z,3.90
2018-04-25T16:13:52.655Z,4.97
2018-04-25T16:16:20.214Z,3.87
2018-04-25T16:18:47.686Z,3.57
2018-04-25T16:21:15.271Z,3.60
2018-04-25T16:23:42.685Z,3.60
2018-04-25T16:26:10.164Z,3.70
2018-04-25T16:28:37.622Z,3.70
2018-04-25T16:31:06.236Z,4.23
2018-04-25T16:33:33.647Z,3.60
2018-04-25T16:36:01.217Z,3.97
2018-04-25T16:38:28.696Z,3.93
2018-04-25T16:40:56.298Z,4.00
2018-04-25T16:43:23.820Z,4.20
2018-04-25T16:45:51.274Z,4.40
2018-04-25T16:48:18.762Z,3.53
2018-04-25T16:50:46.494Z,3.60
2018-04-25T16:53:13.954Z,4.53
2018-04-25T16:55:41.415Z,3.50
2018-04-25T16:58:08.898Z,4.00
2018-04-25T17:00:36.375Z,3.97
2018-04-25T17:03:03.926Z,3.90
2018-04-25T17:05:31.570Z,3.80
2018-04-25T17:07:59.039Z,3.77
2018-04-25T17:10:26.501Z,3.70
2018-04-25T17:12:54.372Z,4.40
2018-04-25T17:15:21.845Z,4.10
2018-04-25T17:17:49.311Z,4.50
2018-04-25T17:20:16.774Z,4.50
2018-04-25T17:22:44.269Z,4.23
2018-04-25T17:25:11.736Z,4.30
2018-04-25T17:27:39.214Z,4.30
2018-04-25T17:30:06.680Z,4.10
2018-04-25T17:32:34.214Z,4.43
2018-04-25T17:35:01.682Z,3.90
2018-04-25T17:37:29.194Z,4.40
2018-04-25T17:39:56.677Z,4.87
2018-04-25T17:42:24.153Z,4.73
2018-04-25T17:44:52.326Z,5.50
2018-04-25T17:47:19.783Z,5.43
2018-04-25T17:49:47.282Z,5.43
2018-04-25T17:52:14.775Z,7.17
2018-04-25T17:54:42.295Z,5.00
2018-04-25T17:57:11.082Z,4.93
2018-04-25T17:59:39.315Z,5.00
2018-04-25T18:02:07.136Z,4.67
2018-04-25T18:04:34.618Z,4.40
2018-04-25T18:07:02.094Z,5.87
2018-04-25T18:09:29.553Z,5.73
2018-04-25T18:11:56.994Z,5.30
2018-04-25T18:14:24.487Z,8.40
2018-04-25T18:16:52.017Z,6.20
2018-04-25T18:19:19.462Z,6.10
2018-04-25T18:21:46.938Z,5.37
2018-04-25T18:24:14.404Z,6.07
2018-04-25T18:26:41.911Z,5.80
2018-04-25T18:29:09.409Z,5.87
2018-04-25T18:31:37.508Z,9.97
2018-04-25T18:34:05.080Z,7.20
2018-04-25T18:36:32.590Z,6.57
2018-04-25T18:39:00.100Z,7.43
2018-04-25T18:41:27.618Z,7.47
2018-04-25T18:43:55.163Z,6.53
2018-04-25T18:46:22.632Z,6.73
2018-04-25T18:48:50.105Z,7.93
2018-04-25T18:51:17.574Z,7.30
2018-04-25T18:53:45.069Z,7.77
2018-04-25T18:56:12.540Z,7.20
2018-04-25T18:58:40.010Z,8.17
2018-04-25T19:01:07.595Z,7.20
2018-04-25T19:03:35.090Z,6.37
2018-04-25T19:06:02.559Z,6.50
2018-04-25T19:08:30.105Z,6.40
2018-04-25T19:10:57.589Z,6.33
2018-04-25T19:13:25.074Z,6.00
2018-04-25T19:15:52.572Z,6.17
2018-04-25T19:18:20.132Z,7.60
2018-04-25T19:20:47.653Z,6.77
2018-04-25T19:23:15.485Z,7.03
2018-04-25T19:25:43.623Z,6.70
2018-04-25T19:28:11.107Z,6.97
2018-04-25T19:30:38.620Z,7.00
2018-04-25T19:33:06.106Z,6.70
2018-04-25T19:35:33.584Z,6.97
2018-04-25T19:38:01.172Z,6.50
2018-04-25T19:40:28.714Z,6.30
2018-04-25T19:42:56.234Z,6.53
2018-04-25T19:45:23.874Z,7.20
2018-04-25T19:47:51.348Z,7.30
2018-04-25T19:50:18.839Z,6.00
2018-04-25T19:52:46.363Z,6.30
2018-04-25T19:55:14.167Z,6.50
2018-04-25T19:57:41.655Z,6.77
2018-04-25T20:00:09.136Z,6.60
2018-04-25T20:02:36.688Z,5.70
2018-04-25T20:05:04.254Z,6.33
2018-04-25T20:07:31.768Z,6.53
2018-04-25T20:09:59.287Z,6.77
2018-04-25T20:12:27.360Z,6.70
2018-04-25T20:14:54.856Z,6.20
2018-04-25T20:17:22.470Z,6.77
2018-04-25T20:19:50.031Z,6.50
2018-04-25T20:22:17.532Z,6.47
2018-04-25T20:24:45.098Z,5.83
2018-04-25T20:27:12.850Z,5.77
2018-04-25T20:29:40.400Z,4.80
2018-04-25T20:32:07.825Z,5.93
2018-04-25T20:34:35.567Z,5.33
2018-04-25T20:37:03.042Z,5.00
2018-04-25T20:39:30.560Z,5.83
2018-04-25T20:41:58.176Z,5.03
2018-04-25T20:44:25.703Z,6.23
2018-04-25T20:46:53.290Z,5.10
2018-04-25T20:49:20.772Z,5.00
2018-04-25T20:51:48.235Z,6.00
2018-04-25T20:54:15.760Z,5.10
2018-04-25T20:56:43.228Z,6.27
2018-04-25T20:59:10.844Z,5.90
2018-04-25T21:01:38.318Z,5.97
2018-04-25T21:04:09.933Z,6.00
2018-04-25T21:06:37.462Z,5.63
2018-04-25T21:09:04.962Z,5.37
2018-04-25T21:11:32.430Z,5.00
2018-04-25T21:13:59.898Z,5.90
2018-04-25T21:16:27.387Z,5.37
2018-04-25T21:18:54.852Z,5.70
2018-04-25T21:21:22.338Z,5.53
2018-04-25T21:23:49.942Z,5.50
2018-04-25T21:26:17.399Z,5.30
2018-04-25T21:28:44.887Z,4.97
2018-04-25T21:31:12.859Z,5.60
2018-04-25T21:33:40.343Z,5.30
2018-04-25T21:36:07.853Z,6.00
2018-04-25T21:38:35.379Z,5.73
2018-04-25T21:41:02.888Z,5.20
2018-04-25T21:43:30.360Z,5.67
2018-04-25T21:45:57.876Z,5.30
2018-04-25T21:48:25.377Z,5.60
2018-04-25T21:50:52.836Z,5.83
2018-04-25T21:53:20.335Z,5.43
2018-04-25T21:55:47.823Z,5.03
2018-04-25T21:58:15.283Z,5.53
2018-04-25T22:00:42.735Z,4.90
2018-04-25T22:03:10.209Z,5.40
2018-04-25T22:05:37.690Z,5.30
2018-04-25T22:08:05.247Z,5.30
2018-04-25T22:10:32.737Z,5.57
2018-04-25T22:13:00.270Z,5.47
2018-04-25T22:15:27.719Z,5.13
2018-04-25T22:17:55.201Z,5.30
2018-04-25T22:20:22.656Z,5.33
2018-04-25T22:22:50.225Z,5.33
2018-04-25T22:25:17.720Z,5.00
2018-04-25T22:27:45.191Z,5.97
2018-04-25T22:30:12.701Z,4.77
2018-04-25T22:32:40.213Z,5.30
2018-04-25T22:35:07.689Z,4.63
2018-04-25T22:37:35.189Z,5.00
2018-04-25T22:40:02.683Z,4.83
2018-04-25T22:42:30.180Z,4.03
2018-04-25T22:44:57.647Z,5.17
2018-04-25T22:47:25.131Z,5.20
2018-04-25T22:49:52.665Z,4.80
2018-04-25T22:52:20.098Z,5.10
2018-04-25T22:54:47.656Z,5.10
2018-04-25T22:57:15.133Z,4.50
2018-04-25T22:59:42.624Z,5.47
2018-04-25T23:02:10.105Z,4.97
2018-04-25T23:04:37.577Z,5.50
2018-04-25T23:07:05.188Z,5.60
2018-04-25T23:09:33.713Z,5.30
2018-04-25T23:12:01.207Z,4.87
2018-04-25T23:14:28.683Z,5.30
2018-04-25T23:16:56.156Z,5.40
2018-04-25T23:19:23.646Z,5.33
2018-04-25T23:21:51.107Z,5.93
2018-04-25T23:24:18.615Z,5.20
2018-04-25T23:26:46.229Z,4.80
2018-04-25T23:29:13.780Z,5.63
2018-04-25T23:31:41.273Z,5.70
2018-04-25T23:34:08.796Z,4.40
2018-04-25T23:36:36.291Z,5.27
2018-04-25T23:39:03.858Z,3.93
2018-04-25T23:41:31.589Z,5.00
2018-04-25T23:43:59.186Z,5.00
2018-04-25T23:46:26.643Z,4.50
2018-04-25T23:48:54.121Z,4.00
2018-04-25T23:51:21.613Z,4.90
2018-04-25T23:53:49.124Z,4.80
2018-04-25T23:56:16.619Z,4.03
2018-04-25T23:58:44.327Z,4.30
